sensor_id;sensor_type;location;lat;lon;timestamp;temperature;humidity
23869;DHT22;12115;47.128;15.422;2023-07-24T00:02:09;20.70;99.90
23869;DHT22;12115;47.128;15.422;2023-07-24T00:04:37;20.60;99.90
23869;DHT22;12115;47.128;15.422;2023-07-24T00:07:04;20.60;99.90
23869;DHT22;12115;47.128;15.422;2023-07-24T00:09:32;20.60;99.90
23869;DHT22;12115;47.128;15.422;2023-07-24T00:12:00;20.60;99.90
23869;DHT22;12115;47.128;15.422;2023-07-24T00:14:32;20.50;99.90
23869;DHT22;12115;47.128;15.422;2023-07-24T00:16:59;20.50;99.90
23869;DHT22;12115;47.128;15.422;2023-07-24T00:19:26;20.40;99.90
23869;DHT22;12115;47.128;15.422;2023-07-24T00:21:54;20.30;99.90
23869;DHT22;12115;47.128;15.422;2023-07-24T00:24:21;20.20;99.90
23869;DHT22;12115;47.128;15.422;2023-07-24T00:26:49;20.20;99.90
23869;DHT22;12115;47.128;15.422;2023-07-24T00:29:17;20.20;99.90
23869;DHT22;12115;47.128;15.422;2023-07-24T00:31:45;20.20;99.90
23869;DHT22;12115;47.128;15.422;2023-07-24T00:34:12;20.20;99.90
23869;DHT22;12115;47.128;15.422;2023-07-24T00:36:39;20.20;99.90
23869;DHT22;12115;47.128;15.422;2023-07-24T00:39:07;20.10;99.90
23869;DHT22;12115;47.128;15.422;2023-07-24T00:41:34;19.90;99.90
23869;DHT22;12115;47.128;15.422;2023-07-24T00:44:05;19.80;99.90
23869;DHT22;12115;47.128;15.422;2023-07-24T00:46:38;19.80;99.90
23869;DHT22;12115;47.128;15.422;2023-07-24T00:49:05;19.80;99.90
23869;DHT22;12115;47.128;15.422;2023-07-24T00:51:33;19.80;99.90
23869;DHT22;12115;47.128;15.422;2023-07-24T00:54:03;19.80;99.90
23869;DHT22;12115;47.128;15.422;2023-07-24T00:56:31;19.70;99.90
23869;DHT22;12115;47.128;15.422;2023-07-24T00:59:00;19.70;99.90
23869;DHT22;12115;47.128;15.422;2023-07-24T01:01:28;19.60;99.90
23869;DHT22;12115;47.128;15.422;2023-07-24T01:03:57;19.60;99.90
23869;DHT22;12115;47.128;15.422;2023-07-24T01:06:25;19.50;99.90
23869;DHT22;12115;47.128;15.422;2023-07-24T01:08:53;19.50;99.90
23869;DHT22;12115;47.128;15.422;2023-07-24T01:11:28;19.50;99.90
23869;DHT22;12115;47.128;15.422;2023-07-24T01:14:09;19.40;99.90
23869;DHT22;12115;47.128;15.422;2023-07-24T01:16:41;19.40;99.90
23869;DHT22;12115;47.128;15.422;2023-07-24T01:19:35;19.40;99.90
23869;DHT22;12115;47.128;15.422;2023-07-24T01:27:44;19.30;99.90
23869;DHT22;12115;47.128;15.422;2023-07-24T01:30:17;19.20;99.90
23869;DHT22;12115;47.128;15.422;2023-07-24T01:32:46;19.20;99.90
23869;DHT22;12115;47.128;15.422;2023-07-24T01:35:16;19.20;99.90
23869;DHT22;12115;47.128;15.422;2023-07-24T01:37:46;19.10;99.90
23869;DHT22;12115;47.128;15.422;2023-07-24T01:40:13;19.10;99.90
23869;DHT22;12115;47.128;15.422;2023-07-24T01:42:42;19.00;99.90
23869;DHT22;12115;47.128;15.422;2023-07-24T01:45:10;19.00;99.90
23869;DHT22;12115;47.128;15.422;2023-07-24T01:47:38;19.00;99.90
23869;DHT22;12115;47.128;15.422;2023-07-24T01:50:07;18.90;99.90
23869;DHT22;12115;47.128;15.422;2023-07-24T01:52:34;18.90;99.90
23869;DHT22;12115;47.128;15.422;2023-07-24T01:55:02;18.80;99.90
23869;DHT22;12115;47.128;15.422;2023-07-24T01:57:30;18.70;99.90
23869;DHT22;12115;47.128;15.422;2023-07-24T01:59:57;18.70;99.90
23869;DHT22;12115;47.128;15.422;2023-07-24T02:02:24;18.70;99.90
23869;DHT22;12115;47.128;15.422;2023-07-24T02:04:52;18.60;99.90
23869;DHT22;12115;47.128;15.422;2023-07-24T02:07:19;18.60;99.90
23869;DHT22;12115;47.128;15.422;2023-07-24T02:09:50;18.60;99.90
23869;DHT22;12115;47.128;15.422;2023-07-24T02:12:17;18.60;99.90
23869;DHT22;12115;47.128;15.422;2023-07-24T02:14:45;18.60;99.90
23869;DHT22;12115;47.128;15.422;2023-07-24T02:17:16;18.60;99.90
23869;DHT22;12115;47.128;15.422;2023-07-24T02:19:44;18.50;99.90
23869;DHT22;12115;47.128;15.422;2023-07-24T02:22:11;18.50;99.90
23869;DHT22;12115;47.128;15.422;2023-07-24T02:24:39;18.50;99.90
23869;DHT22;12115;47.128;15.422;2023-07-24T02:27:06;18.40;99.90
23869;DHT22;12115;47.128;15.422;2023-07-24T02:29:34;18.40;99.90
23869;DHT22;12115;47.128;15.422;2023-07-24T02:32:03;18.30;99.90
23869;DHT22;12115;47.128;15.422;2023-07-24T02:34:30;18.30;99.90
23869;DHT22;12115;47.128;15.422;2023-07-24T02:36:58;18.30;99.90
23869;DHT22;12115;47.128;15.422;2023-07-24T02:39:25;18.30;99.90
23869;DHT22;12115;47.128;15.422;2023-07-24T02:41:53;18.30;99.90
23869;DHT22;12115;47.128;15.422;2023-07-24T02:44:21;18.30;99.90
23869;DHT22;12115;47.128;15.422;2023-07-24T02:46:49;18.30;99.90
23869;DHT22;12115;47.128;15.422;2023-07-24T02:49:16;18.20;99.90
23869;DHT22;12115;47.128;15.422;2023-07-24T02:51:44;18.10;99.90
23869;DHT22;12115;47.128;15.422;2023-07-24T02:54:11;18.10;99.90
23869;DHT22;12115;47.128;15.422;2023-07-24T02:56:39;18.10;99.90
23869;DHT22;12115;47.128;15.422;2023-07-24T02:59:07;18.00;99.90
23869;DHT22;12115;47.128;15.422;2023-07-24T03:01:34;18.00;99.90
23869;DHT22;12115;47.128;15.422;2023-07-24T03:04:02;18.00;99.90
23869;DHT22;12115;47.128;15.422;2023-07-24T03:06:30;18.00;99.90
23869;DHT22;12115;47.128;15.422;2023-07-24T03:09:02;18.00;99.90
23869;DHT22;12115;47.128;15.422;2023-07-24T03:11:30;18.00;99.90
23869;DHT22;12115;47.128;15.422;2023-07-24T03:13:57;17.90;99.90
23869;DHT22;12115;47.128;15.422;2023-07-24T03:16:25;17.80;99.90
23869;DHT22;12115;47.128;15.422;2023-07-24T03:18:53;17.70;99.90
23869;DHT22;12115;47.128;15.422;2023-07-24T03:21:21;17.70;99.90
23869;DHT22;12115;47.128;15.422;2023-07-24T03:23:48;17.70;99.90
23869;DHT22;12115;47.128;15.422;2023-07-24T03:26:16;17.70;99.90
23869;DHT22;12115;47.128;15.422;2023-07-24T03:28:44;17.70;99.90
23869;DHT22;12115;47.128;15.422;2023-07-24T03:31:11;17.70;99.90
23869;DHT22;12115;47.128;15.422;2023-07-24T03:33:39;17.70;99.90
23869;DHT22;12115;47.128;15.422;2023-07-24T03:36:07;17.70;99.90
23869;DHT22;12115;47.128;15.422;2023-07-24T03:38:34;17.70;99.90
23869;DHT22;12115;47.128;15.422;2023-07-24T03:41:02;17.70;99.90
23869;DHT22;12115;47.128;15.422;2023-07-24T03:43:30;17.70;99.90
23869;DHT22;12115;47.128;15.422;2023-07-24T03:45:58;17.70;99.90
23869;DHT22;12115;47.128;15.422;2023-07-24T03:48:26;17.70;99.90
23869;DHT22;12115;47.128;15.422;2023-07-24T03:51:00;17.60;99.90
23869;DHT22;12115;47.128;15.422;2023-07-24T03:53:27;17.50;99.90
23869;DHT22;12115;47.128;15.422;2023-07-24T03:55:58;17.50;99.90
23869;DHT22;12115;47.128;15.422;2023-07-24T03:58:26;17.50;99.90
23869;DHT22;12115;47.128;15.422;2023-07-24T04:00:53;17.50;99.90
23869;DHT22;12115;47.128;15.422;2023-07-24T04:03:21;17.50;99.90
23869;DHT22;12115;47.128;15.422;2023-07-24T04:05:48;17.50;99.90
23869;DHT22;12115;47.128;15.422;2023-07-24T04:08:15;17.50;99.90
23869;DHT22;12115;47.128;15.422;2023-07-24T04:10:43;17.50;99.90
23869;DHT22;12115;47.128;15.422;2023-07-24T04:13:10;17.50;99.90
23869;DHT22;12115;47.128;15.422;2023-07-24T04:15:38;17.50;99.90
23869;DHT22;12115;47.128;15.422;2023-07-24T04:18:06;17.50;99.90
23869;DHT22;12115;47.128;15.422;2023-07-24T04:20:34;17.50;99.90
23869;DHT22;12115;47.128;15.422;2023-07-24T04:23:01;17.40;99.90
23869;DHT22;12115;47.128;15.422;2023-07-24T04:25:28;17.50;99.90
23869;DHT22;12115;47.128;15.422;2023-07-24T04:27:56;17.50;99.90
23869;DHT22;12115;47.128;15.422;2023-07-24T04:30:23;17.50;99.90
23869;DHT22;12115;47.128;15.422;2023-07-24T04:32:51;17.50;99.90
23869;DHT22;12115;47.128;15.422;2023-07-24T04:35:18;17.50;99.90
23869;DHT22;12115;47.128;15.422;2023-07-24T04:37:46;17.50;99.90
23869;DHT22;12115;47.128;15.422;2023-07-24T04:40:14;17.60;99.90
23869;DHT22;12115;47.128;15.422;2023-07-24T04:42:41;17.60;99.90
23869;DHT22;12115;47.128;15.422;2023-07-24T04:45:09;17.60;99.90
23869;DHT22;12115;47.128;15.422;2023-07-24T04:47:36;17.60;99.90
23869;DHT22;12115;47.128;15.422;2023-07-24T04:50:05;17.60;99.90
23869;DHT22;12115;47.128;15.422;2023-07-24T04:52:33;17.60;99.90
23869;DHT22;12115;47.128;15.422;2023-07-24T04:55:00;17.60;99.90
23869;DHT22;12115;47.128;15.422;2023-07-24T04:57:33;17.70;99.90
23869;DHT22;12115;47.128;15.422;2023-07-24T05:00:09;17.70;99.90
23869;DHT22;12115;47.128;15.422;2023-07-24T05:02:42;17.70;99.90
23869;DHT22;12115;47.128;15.422;2023-07-24T05:05:18;17.80;99.90
23869;DHT22;12115;47.128;15.422;2023-07-24T05:07:53;17.80;99.90
23869;DHT22;12115;47.128;15.422;2023-07-24T05:10:30;17.80;99.90
23869;DHT22;12115;47.128;15.422;2023-07-24T05:13:17;17.80;99.90
23869;DHT22;12115;47.128;15.422;2023-07-24T05:15:54;17.80;99.90
23869;DHT22;12115;47.128;15.422;2023-07-24T05:18:35;17.90;99.90
23869;DHT22;12115;47.128;15.422;2023-07-24T05:21:10;18.00;99.90
23869;DHT22;12115;47.128;15.422;2023-07-24T05:23:42;18.00;99.90
23869;DHT22;12115;47.128;15.422;2023-07-24T05:26:28;18.10;99.90
23869;DHT22;12115;47.128;15.422;2023-07-24T05:29:11;18.20;99.90
23869;DHT22;12115;47.128;15.422;2023-07-24T05:31:49;18.30;99.90
23869;DHT22;12115;47.128;15.422;2023-07-24T05:34:37;18.40;99.90
23869;DHT22;12115;47.128;15.422;2023-07-24T05:37:18;18.40;99.90
23869;DHT22;12115;47.128;15.422;2023-07-24T05:40:00;18.50;99.90
23869;DHT22;12115;47.128;15.422;2023-07-24T05:42:45;18.50;99.90
23869;DHT22;12115;47.128;15.422;2023-07-24T05:45:21;18.50;99.90
23869;DHT22;12115;47.128;15.422;2023-07-24T05:48:01;18.50;99.90
23869;DHT22;12115;47.128;15.422;2023-07-24T05:50:37;18.60;99.90
23869;DHT22;12115;47.128;15.422;2023-07-24T05:53:20;18.70;99.90
23869;DHT22;12115;47.128;15.422;2023-07-24T05:56:05;18.80;99.90
23869;DHT22;12115;47.128;15.422;2023-07-24T05:58:48;18.90;99.90
23869;DHT22;12115;47.128;15.422;2023-07-24T06:01:21;19.10;99.90
23869;DHT22;12115;47.128;15.422;2023-07-24T06:04:15;19.20;99.90
23869;DHT22;12115;47.128;15.422;2023-07-24T06:06:56;19.30;99.90
23869;DHT22;12115;47.128;15.422;2023-07-24T06:09:23;19.40;99.90
23869;DHT22;12115;47.128;15.422;2023-07-24T06:11:51;19.40;99.90
23869;DHT22;12115;47.128;15.422;2023-07-24T06:14:19;19.50;99.90
23869;DHT22;12115;47.128;15.422;2023-07-24T06:16:46;19.50;99.90
23869;DHT22;12115;47.128;15.422;2023-07-24T06:19:14;19.60;99.90
23869;DHT22;12115;47.128;15.422;2023-07-24T06:21:42;19.70;99.90
23869;DHT22;12115;47.128;15.422;2023-07-24T06:24:09;19.70;99.90
23869;DHT22;12115;47.128;15.422;2023-07-24T06:26:39;19.80;99.90
23869;DHT22;12115;47.128;15.422;2023-07-24T06:29:07;20.00;99.90
23869;DHT22;12115;47.128;15.422;2023-07-24T06:31:34;20.10;99.90
23869;DHT22;12115;47.128;15.422;2023-07-24T06:34:01;20.30;99.90
23869;DHT22;12115;47.128;15.422;2023-07-24T06:36:32;20.40;99.90
23869;DHT22;12115;47.128;15.422;2023-07-24T06:39:14;20.50;99.90
23869;DHT22;12115;47.128;15.422;2023-07-24T06:41:57;20.60;99.90
23869;DHT22;12115;47.128;15.422;2023-07-24T06:47:50;20.80;99.90
23869;DHT22;12115;47.128;15.422;2023-07-24T06:50:33;20.90;99.90
23869;DHT22;12115;47.128;15.422;2023-07-24T06:53:12;21.00;99.90
23869;DHT22;12115;47.128;15.422;2023-07-24T06:56:00;21.20;99.90
23869;DHT22;12115;47.128;15.422;2023-07-24T06:58:39;21.40;99.90
23869;DHT22;12115;47.128;15.422;2023-07-24T07:01:30;21.60;99.90
23869;DHT22;12115;47.128;15.422;2023-07-24T07:04:07;21.60;99.90
23869;DHT22;12115;47.128;15.422;2023-07-24T07:06:44;21.60;99.90
23869;DHT22;12115;47.128;15.422;2023-07-24T07:09:27;21.60;99.90
23869;DHT22;12115;47.128;15.422;2023-07-24T07:12:13;21.70;99.90
23869;DHT22;12115;47.128;15.422;2023-07-24T07:14:53;21.80;99.90
23869;DHT22;12115;47.128;15.422;2023-07-24T07:17:35;22.00;99.90
23869;DHT22;12115;47.128;15.422;2023-07-24T07:20:20;22.00;99.90
23869;DHT22;12115;47.128;15.422;2023-07-24T07:23:24;22.10;99.90
23869;DHT22;12115;47.128;15.422;2023-07-24T07:26:07;22.20;99.90
23869;DHT22;12115;47.128;15.422;2023-07-24T07:28:44;22.30;99.90
23869;DHT22;12115;47.128;15.422;2023-07-24T07:31:54;22.30;99.90
23869;DHT22;12115;47.128;15.422;2023-07-24T07:34:48;22.40;99.90
23869;DHT22;12115;47.128;15.422;2023-07-24T07:37:25;22.40;99.90
23869;DHT22;12115;47.128;15.422;2023-07-24T07:40:31;22.60;99.90
23869;DHT22;12115;47.128;15.422;2023-07-24T07:43:13;22.60;99.90
23869;DHT22;12115;47.128;15.422;2023-07-24T07:45:47;22.60;99.90
23869;DHT22;12115;47.128;15.422;2023-07-24T07:48:29;22.70;99.90
23869;DHT22;12115;47.128;15.422;2023-07-24T07:51:18;22.70;99.90
23869;DHT22;12115;47.128;15.422;2023-07-24T07:54:09;22.80;99.90
23869;DHT22;12115;47.128;15.422;2023-07-24T07:56:58;22.90;99.90
23869;DHT22;12115;47.128;15.422;2023-07-24T07:59:39;22.90;99.90
23869;DHT22;12115;47.128;15.422;2023-07-24T08:02:06;22.90;99.90
23869;DHT22;12115;47.128;15.422;2023-07-24T08:04:34;23.00;99.90
23869;DHT22;12115;47.128;15.422;2023-07-24T08:07:01;23.00;99.90
23869;DHT22;12115;47.128;15.422;2023-07-24T08:09:30;23.10;99.90
23869;DHT22;12115;47.128;15.422;2023-07-24T08:11:57;23.10;99.90
23869;DHT22;12115;47.128;15.422;2023-07-24T08:14:25;23.20;99.90
23869;DHT22;12115;47.128;15.422;2023-07-24T08:16:52;23.30;99.90
23869;DHT22;12115;47.128;15.422;2023-07-24T08:19:20;23.40;99.90
23869;DHT22;12115;47.128;15.422;2023-07-24T08:21:48;23.50;99.90
23869;DHT22;12115;47.128;15.422;2023-07-24T08:24:15;23.60;99.90
23869;DHT22;12115;47.128;15.422;2023-07-24T08:26:43;23.60;99.90
23869;DHT22;12115;47.128;15.422;2023-07-24T08:29:10;23.70;99.90
23869;DHT22;12115;47.128;15.422;2023-07-24T08:31:37;23.90;99.90
23869;DHT22;12115;47.128;15.422;2023-07-24T08:34:05;23.90;99.90
23869;DHT22;12115;47.128;15.422;2023-07-24T08:36:32;24.00;99.90
23869;DHT22;12115;47.128;15.422;2023-07-24T20:11:22;23.50;99.90
23869;DHT22;12115;47.128;15.422;2023-07-24T20:13:55;23.20;99.90
23869;DHT22;12115;47.128;15.422;2023-07-24T20:16:24;23.00;99.90
23869;DHT22;12115;47.128;15.422;2023-07-24T20:18:53;23.00;99.90
23869;DHT22;12115;47.128;15.422;2023-07-24T20:21:21;23.10;99.90
23869;DHT22;12115;47.128;15.422;2023-07-24T20:23:52;23.10;99.90
23869;DHT22;12115;47.128;15.422;2023-07-24T20:26:20;23.10;99.90
23869;DHT22;12115;47.128;15.422;2023-07-24T20:28:49;23.10;99.90
23869;DHT22;12115;47.128;15.422;2023-07-24T20:31:18;23.10;99.90
23869;DHT22;12115;47.128;15.422;2023-07-24T20:33:48;23.00;99.90
23869;DHT22;12115;47.128;15.422;2023-07-24T20:36:17;22.90;99.90
23869;DHT22;12115;47.128;15.422;2023-07-24T20:38:45;22.90;99.90
23869;DHT22;12115;47.128;15.422;2023-07-24T20:41:14;22.90;99.90
23869;DHT22;12115;47.128;15.422;2023-07-24T20:43:44;22.70;99.90
23869;DHT22;12115;47.128;15.422;2023-07-24T20:46:15;22.70;99.90
23869;DHT22;12115;47.128;15.422;2023-07-24T20:48:44;22.70;99.90
23869;DHT22;12115;47.128;15.422;2023-07-24T20:51:20;22.70;99.90
23869;DHT22;12115;47.128;15.422;2023-07-24T20:53:51;22.70;99.90
23869;DHT22;12115;47.128;15.422;2023-07-24T20:56:20;22.70;99.90
23869;DHT22;12115;47.128;15.422;2023-07-24T20:58:51;22.70;99.90
23869;DHT22;12115;47.128;15.422;2023-07-24T21:01:19;22.50;99.90
23869;DHT22;12115;47.128;15.422;2023-07-24T21:03:51;22.50;99.90
23869;DHT22;12115;47.128;15.422;2023-07-24T21:06:18;22.50;99.90
23869;DHT22;12115;47.128;15.422;2023-07-24T21:08:45;22.50;99.90
23869;DHT22;12115;47.128;15.422;2023-07-24T21:11:12;22.50;99.90
23869;DHT22;12115;47.128;15.422;2023-07-24T21:13:39;22.50;99.90
23869;DHT22;12115;47.128;15.422;2023-07-24T21:16:06;22.50;99.90
23869;DHT22;12115;47.128;15.422;2023-07-24T21:18:33;22.50;99.90
23869;DHT22;12115;47.128;15.422;2023-07-24T21:21:00;22.50;99.90
23869;DHT22;12115;47.128;15.422;2023-07-24T21:23:28;22.40;99.90
23869;DHT22;12115;47.128;15.422;2023-07-24T21:25:55;22.30;99.90
23869;DHT22;12115;47.128;15.422;2023-07-24T21:28:23;22.20;99.90
23869;DHT22;12115;47.128;15.422;2023-07-24T21:30:50;22.10;99.90
23869;DHT22;12115;47.128;15.422;2023-07-24T21:33:18;22.00;99.90
23869;DHT22;12115;47.128;15.422;2023-07-24T21:35:45;22.00;99.90
23869;DHT22;12115;47.128;15.422;2023-07-24T21:38:12;22.10;99.90
23869;DHT22;12115;47.128;15.422;2023-07-24T21:40:40;22.10;99.90
23869;DHT22;12115;47.128;15.422;2023-07-24T21:43:07;22.00;99.90
23869;DHT22;12115;47.128;15.422;2023-07-24T21:45:34;22.00;99.90
23869;DHT22;12115;47.128;15.422;2023-07-24T21:48:03;22.00;99.90
23869;DHT22;12115;47.128;15.422;2023-07-24T21:50:31;21.80;99.90
23869;DHT22;12115;47.128;15.422;2023-07-24T21:52:58;21.80;99.90
23869;DHT22;12115;47.128;15.422;2023-07-24T21:55:25;21.80;99.90
23869;DHT22;12115;47.128;15.422;2023-07-24T21:57:52;21.80;99.90
23869;DHT22;12115;47.128;15.422;2023-07-24T22:00:23;21.90;99.90
23869;DHT22;12115;47.128;15.422;2023-07-24T22:02:50;21.90;99.90
23869;DHT22;12115;47.128;15.422;2023-07-24T22:05:18;21.70;99.90
23869;DHT22;12115;47.128;15.422;2023-07-24T22:07:45;21.60;99.90
23869;DHT22;12115;47.128;15.422;2023-07-24T22:10:12;21.60;99.90
23869;DHT22;12115;47.128;15.422;2023-07-24T22:12:38;21.60;99.90
23869;DHT22;12115;47.128;15.422;2023-07-24T22:15:06;21.50;99.90
23869;DHT22;12115;47.128;15.422;2023-07-24T22:17:33;21.50;99.90
23869;DHT22;12115;47.128;15.422;2023-07-24T22:20:00;21.50;99.90
23869;DHT22;12115;47.128;15.422;2023-07-24T22:22:27;21.20;99.90
23869;DHT22;12115;47.128;15.422;2023-07-24T22:24:54;21.20;99.90
23869;DHT22;12115;47.128;15.422;2023-07-24T22:27:21;21.20;99.90
23869;DHT22;12115;47.128;15.422;2023-07-24T22:29:48;21.30;99.90
23869;DHT22;12115;47.128;15.422;2023-07-24T22:32:15;21.40;99.90
23869;DHT22;12115;47.128;15.422;2023-07-24T22:34:42;21.40;99.90
23869;DHT22;12115;47.128;15.422;2023-07-24T22:37:09;21.30;99.90
23869;DHT22;12115;47.128;15.422;2023-07-24T22:39:36;21.20;99.90
23869;DHT22;12115;47.128;15.422;2023-07-24T22:42:03;21.20;99.90
23869;DHT22;12115;47.128;15.422;2023-07-24T22:44:36;21.20;99.90
23869;DHT22;12115;47.128;15.422;2023-07-24T22:47:04;21.00;99.90
23869;DHT22;12115;47.128;15.422;2023-07-24T22:49:31;21.00;99.90
23869;DHT22;12115;47.128;15.422;2023-07-24T22:51:58;21.00;99.90
23869;DHT22;12115;47.128;15.422;2023-07-24T22:54:25;21.00;99.90
23869;DHT22;12115;47.128;15.422;2023-07-24T22:56:52;21.10;99.90
23869;DHT22;12115;47.128;15.422;2023-07-24T22:59:23;21.10;99.90
23869;DHT22;12115;47.128;15.422;2023-07-24T23:01:51;21.10;99.90
23869;DHT22;12115;47.128;15.422;2023-07-24T23:04:19;21.00;99.90
23869;DHT22;12115;47.128;15.422;2023-07-24T23:06:52;20.90;99.90
23869;DHT22;12115;47.128;15.422;2023-07-24T23:09:21;20.80;99.90
23869;DHT22;12115;47.128;15.422;2023-07-24T23:11:48;20.60;99.90
23869;DHT22;12115;47.128;15.422;2023-07-24T23:14:15;20.70;99.90
23869;DHT22;12115;47.128;15.422;2023-07-24T23:16:42;20.80;99.90
23869;DHT22;12115;47.128;15.422;2023-07-24T23:19:09;20.80;99.90
23869;DHT22;12115;47.128;15.422;2023-07-24T23:21:36;20.80;99.90
23869;DHT22;12115;47.128;15.422;2023-07-24T23:24:03;20.80;99.90
23869;DHT22;12115;47.128;15.422;2023-07-24T23:26:30;20.80;99.90
23869;DHT22;12115;47.128;15.422;2023-07-24T23:28:57;20.70;99.90
23869;DHT22;12115;47.128;15.422;2023-07-24T23:31:25;20.60;99.90
23869;DHT22;12115;47.128;15.422;2023-07-24T23:33:55;20.50;99.90
23869;DHT22;12115;47.128;15.422;2023-07-24T23:36:22;20.60;99.90
23869;DHT22;12115;47.128;15.422;2023-07-24T23:38:49;20.60;99.90
23869;DHT22;12115;47.128;15.422;2023-07-24T23:41:16;20.60;99.90
23869;DHT22;12115;47.128;15.422;2023-07-24T23:43:43;20.60;99.90
23869;DHT22;12115;47.128;15.422;2023-07-24T23:46:11;20.50;99.90
23869;DHT22;12115;47.128;15.422;2023-07-24T23:48:42;20.50;99.90
23869;DHT22;12115;47.128;15.422;2023-07-24T23:53:40;20.60;99.90
23869;DHT22;12115;47.128;15.422;2023-07-24T23:56:07;20.60;99.90
23869;DHT22;12115;47.128;15.422;2023-07-24T23:58:34;20.70;99.90
